Terminal Aerodrome Forecast
Issued by NWS Albuquerque, NM

Home | Current Version | Previous Version | Text Only | Print | Product List | Glossary On
Versions: 1 2 3 4 5 6 7 8 9 10 11 12 13 14 15
000
FTUS45 KABQ 180500
TAFABQ
TAF
KABQ 180524Z 1806/1906 10015KT P6SM FEW250
     FM181100 13007KT P6SM SCT250
     FM181800 19011KT P6SM BKN250
     FM182100 19015G25KT P6SM SCT150 BKN200
     FM190300 20012KT P6SM BKN150=

USA.gov is the U.S. government's official web portal to all federal, state and local government web resources and services.